createdAt,value
2023-05-08T00:01:16.284Z,16.00
2023-05-08T00:03:44.528Z,16.00
2023-05-08T00:06:12.775Z,16.00
2023-05-08T00:08:42.233Z,16.00
2023-05-08T00:11:10.379Z,16.00
2023-05-08T00:13:38.441Z,16.00
2023-05-08T00:16:09.281Z,16.00
2023-05-08T00:18:38.571Z,16.00
2023-05-08T00:21:06.941Z,16.00
2023-05-08T00:23:35.519Z,16.00
2023-05-08T00:26:05.178Z,16.00
2023-05-08T00:28:33.251Z,16.00
2023-05-08T00:31:02.281Z,16.10
2023-05-08T00:33:30.507Z,16.00
2023-05-08T00:36:01.903Z,16.00
2023-05-08T00:38:32.247Z,16.00
2023-05-08T00:41:00.997Z,16.00
2023-05-08T00:43:30.544Z,16.00
2023-05-08T00:46:01.020Z,16.00
2023-05-08T00:48:31.860Z,16.00
2023-05-08T00:51:00.208Z,15.90
2023-05-08T00:53:29.736Z,15.90
2023-05-08T00:55:58.445Z,15.90
2023-05-08T00:58:28.181Z,15.90
2023-05-08T01:00:59.572Z,15.80
2023-05-08T01:03:28.669Z,15.80
2023-05-08T01:05:56.834Z,15.80
2023-05-08T01:08:25.110Z,15.70
2023-05-08T01:11:01.986Z,15.60
2023-05-08T01:13:39.092Z,15.60
2023-05-08T01:16:16.053Z,15.60
2023-05-08T01:18:48.923Z,15.50
2023-05-08T01:21:24.623Z,15.50
2023-05-08T01:24:11.416Z,15.40
2023-05-08T01:27:19.660Z,15.40
2023-05-08T01:30:31.853Z,15.40
2023-05-08T01:33:05.722Z,15.30
2023-05-08T01:35:44.300Z,15.30
2023-05-08T01:38:20.812Z,15.20
2023-05-08T01:40:55.759Z,15.20
2023-05-08T01:43:31.009Z,15.20
2023-05-08T01:46:04.089Z,15.20
2023-05-08T01:48:39.104Z,15.20
2023-05-08T01:51:09.837Z,15.30
2023-05-08T01:53:40.299Z,15.30
2023-05-08T01:56:13.349Z,15.20
2023-05-08T01:58:42.519Z,15.20
2023-05-08T02:01:11.881Z,15.20
2023-05-08T02:03:43.023Z,15.20
2023-05-08T02:06:13.748Z,15.20
2023-05-08T02:08:44.618Z,15.20
2023-05-08T02:11:14.326Z,15.10
2023-05-08T02:13:43.931Z,15.20
2023-05-08T02:16:13.710Z,15.20
2023-05-08T02:18:49.573Z,15.20
2023-05-08T02:21:18.706Z,15.10
2023-05-08T02:23:47.954Z,15.10
2023-05-08T02:26:17.499Z,15.10
2023-05-08T02:28:46.890Z,15.10
2023-05-08T02:31:15.381Z,15.10
2023-05-08T02:33:45.795Z,15.10
2023-05-08T02:36:17.815Z,15.10
2023-05-08T02:38:48.380Z,15.00
2023-05-08T02:41:18.554Z,15.10
2023-05-08T02:43:47.077Z,15.00
2023-05-08T02:46:19.768Z,15.00
2023-05-08T02:48:58.935Z,15.10
2023-05-08T02:51:34.769Z,15.00
2023-05-08T02:54:10.336Z,15.00
2023-05-08T02:56:41.858Z,15.00
2023-05-08T02:59:17.852Z,15.00
2023-05-08T03:01:51.820Z,15.00
2023-05-08T03:04:28.146Z,15.00
2023-05-08T03:06:59.097Z,15.00
2023-05-08T03:09:37.940Z,15.00
2023-05-08T03:12:11.146Z,15.10
2023-05-08T03:14:46.002Z,15.10
2023-05-08T03:17:18.346Z,15.10
2023-05-08T03:19:53.476Z,15.10
2023-05-08T03:22:23.962Z,15.10
2023-05-08T03:24:54.684Z,15.10
2023-05-08T03:27:23.628Z,15.10
2023-05-08T03:29:53.171Z,15.20
2023-05-08T03:32:22.644Z,15.20
2023-05-08T03:34:53.949Z,15.20
2023-05-08T03:37:22.449Z,15.20
2023-05-08T03:39:51.967Z,15.20
2023-05-08T03:42:22.184Z,15.20
2023-05-08T03:44:52.343Z,15.20
2023-05-08T03:47:21.433Z,15.20
2023-05-08T03:49:51.715Z,15.20
2023-05-08T03:52:19.982Z,15.20
2023-05-08T03:54:48.117Z,15.20
2023-05-08T03:57:16.226Z,15.10
2023-05-08T03:59:51.808Z,15.10
2023-05-08T04:02:27.828Z,15.10
2023-05-08T04:05:04.951Z,15.10
2023-05-08T04:07:37.238Z,15.10
2023-05-08T04:10:11.243Z,15.00
2023-05-08T04:12:46.435Z,15.00
2023-05-08T04:15:21.523Z,14.90
2023-05-08T04:17:53.050Z,14.90
2023-05-08T04:20:25.583Z,14.90
2023-05-08T04:22:56.100Z,14.80
2023-05-08T04:25:24.410Z,14.80
2023-05-08T04:27:53.228Z,14.70
2023-05-08T04:30:21.833Z,14.70
2023-05-08T04:32:51.004Z,14.70
2023-05-08T04:35:19.355Z,14.70
2023-05-08T04:37:49.428Z,14.70
2023-05-08T04:40:17.482Z,14.70
2023-05-08T04:42:47.517Z,14.60
2023-05-08T04:45:16.350Z,14.60
2023-05-08T04:47:44.460Z,14.60
2023-05-08T04:50:13.072Z,14.60
2023-05-08T04:52:41.434Z,14.60
2023-05-08T04:55:11.847Z,14.60
2023-05-08T04:57:40.140Z,14.60
2023-05-08T05:00:09.575Z,14.60
2023-05-08T05:02:37.745Z,14.60
2023-05-08T05:05:06.476Z,14.60
2023-05-08T05:07:34.623Z,14.60
2023-05-08T05:10:02.782Z,14.60
2023-05-08T05:12:32.264Z,14.60
2023-05-08T05:15:00.342Z,14.60
2023-05-08T05:17:28.895Z,14.60
2023-05-08T05:19:57.424Z,14.60
2023-05-08T05:22:25.518Z,14.60
2023-05-08T05:24:53.727Z,14.70
2023-05-08T05:27:21.922Z,14.60
2023-05-08T05:29:51.527Z,14.60
2023-05-08T05:32:20.698Z,14.60
2023-05-08T05:34:48.863Z,14.60
2023-05-08T05:37:16.994Z,14.60
2023-05-08T05:39:45.068Z,14.60
2023-05-08T05:42:13.190Z,14.60
2023-05-08T05:44:41.273Z,14.60
2023-05-08T05:47:11.250Z,14.60
2023-05-08T05:49:39.965Z,14.60
2023-05-08T05:52:08.035Z,14.60
2023-05-08T05:54:36.151Z,14.60
2023-05-08T05:57:04.449Z,14.60
2023-05-08T05:59:32.953Z,14.60
2023-05-08T06:02:01.078Z,14.60
2023-05-08T06:04:30.892Z,14.60
2023-05-08T06:06:58.981Z,14.60
2023-05-08T06:09:27.058Z,14.70
2023-05-08T06:11:55.120Z,14.70
2023-05-08T06:14:23.193Z,14.70
2023-05-08T06:16:51.531Z,14.80
2023-05-08T06:19:19.754Z,14.80
2023-05-08T06:21:50.250Z,14.80
2023-05-08T06:24:18.364Z,14.80
2023-05-08T06:26:46.755Z,14.90
2023-05-08T06:29:14.851Z,14.90
2023-05-08T06:31:43.353Z,15.00
2023-05-08T06:34:11.465Z,15.00
2023-05-08T06:36:39.565Z,15.00
2023-05-08T06:39:09.128Z,15.10
2023-05-08T06:41:37.247Z,15.10
2023-05-08T06:44:05.483Z,15.10
2023-05-08T06:46:33.695Z,15.10
2023-05-08T06:49:02.102Z,15.20
2023-05-08T06:51:30.173Z,15.20
2023-05-08T06:53:58.431Z,15.20
2023-05-08T06:56:28.047Z,15.30
2023-05-08T06:59:05.044Z,15.30
2023-05-08T07:01:37.433Z,15.30
2023-05-08T07:04:06.070Z,15.30
2023-05-08T07:06:34.198Z,15.30
2023-05-08T07:09:02.810Z,15.30
2023-05-08T07:11:32.268Z,15.30
2023-05-08T07:14:00.491Z,15.20
2023-05-08T07:16:28.607Z,15.20
2023-05-08T07:18:56.734Z,15.20
2023-05-08T07:21:25.094Z,15.20
2023-05-08T07:23:53.903Z,15.20
2023-05-08T07:26:22.754Z,15.20
2023-05-08T07:28:54.210Z,15.20
2023-05-08T07:31:22.523Z,15.30
2023-05-08T07:33:50.763Z,15.30
2023-05-08T07:36:18.894Z,15.30
2023-05-08T07:38:46.973Z,15.40
2023-05-08T07:41:15.081Z,15.40
2023-05-08T07:43:45.227Z,15.40
2023-05-08T07:46:19.347Z,15.50
2023-05-08T07:48:47.492Z,15.60
2023-05-08T07:51:15.860Z,15.60
2023-05-08T07:53:44.673Z,15.70
2023-05-08T07:56:12.901Z,15.70
2023-05-08T07:58:42.559Z,15.80
2023-05-08T08:01:10.784Z,15.80
2023-05-08T08:03:40.361Z,15.80
2023-05-08T08:06:08.792Z,15.80
2023-05-08T08:08:36.855Z,15.90
2023-05-08T08:11:05.030Z,15.90
2023-05-08T08:13:33.736Z,15.90
2023-05-08T08:16:03.965Z,16.00
2023-05-08T08:18:34.796Z,16.10
2023-05-08T08:21:06.611Z,16.20
2023-05-08T08:23:34.883Z,16.30
2023-05-08T08:26:02.938Z,16.30
2023-05-08T08:28:31.172Z,16.40
2023-05-08T08:30:59.302Z,16.60
2023-05-08T08:33:28.957Z,16.70
2023-05-08T08:35:57.412Z,16.80
2023-05-08T08:38:27.200Z,16.90
2023-05-08T08:40:55.522Z,16.90
2023-05-08T08:43:23.588Z,17.00
2023-05-08T08:45:51.797Z,17.10
2023-05-08T08:48:21.380Z,17.20
2023-05-08T08:50:53.900Z,17.20
2023-05-08T08:53:27.313Z,17.30
2023-05-08T08:55:59.235Z,17.40
2023-05-08T08:58:33.935Z,17.50
2023-05-08T09:01:05.559Z,17.50
2023-05-08T09:03:34.069Z,17.70
2023-05-08T09:06:02.641Z,17.70
2023-05-08T09:08:30.827Z,17.90
2023-05-08T09:11:03.455Z,18.00
2023-05-08T09:13:31.735Z,18.10
2023-05-08T09:16:00.686Z,18.20
2023-05-08T09:18:28.963Z,18.30
2023-05-08T09:20:58.325Z,18.30
2023-05-08T09:23:26.585Z,18.50
2023-05-08T09:25:54.819Z,18.60
2023-05-08T09:28:26.147Z,18.60
2023-05-08T09:30:56.460Z,18.70
2023-05-08T09:33:27.026Z,18.80
2023-05-08T09:35:55.866Z,18.90
2023-05-08T09:38:37.951Z,18.90
2023-05-08T09:41:14.395Z,18.90
2023-05-08T09:43:44.966Z,18.90
2023-05-08T09:46:24.558Z,18.90
2023-05-08T09:48:54.353Z,18.80
2023-05-08T09:51:23.218Z,18.80
2023-05-08T09:53:53.577Z,18.80
2023-05-08T09:56:33.057Z,18.70
2023-05-08T09:59:04.667Z,18.70
2023-05-08T10:01:35.552Z,18.70
2023-05-08T10:04:05.863Z,18.70
2023-05-08T10:06:36.391Z,18.70
2023-05-08T10:09:14.918Z,18.70
2023-05-08T10:11:53.376Z,18.70
2023-05-08T10:14:24.720Z,18.80
2023-05-08T10:16:54.500Z,18.90
2023-05-08T10:19:24.132Z,18.90
2023-05-08T10:21:53.860Z,19.00
2023-05-08T10:24:27.393Z,19.00
2023-05-08T10:27:06.266Z,19.00
2023-05-08T10:29:48.425Z,19.00
2023-05-08T10:32:21.140Z,19.00
2023-05-08T10:34:53.994Z,19.00
2023-05-08T10:37:22.188Z,19.00
2023-05-08T10:39:51.395Z,19.00
2023-05-08T10:42:19.990Z,19.00
2023-05-08T10:44:49.919Z,19.00
2023-05-08T10:47:23.899Z,19.00
2023-05-08T10:50:01.539Z,19.10
2023-05-08T10:52:36.008Z,19.10
2023-05-08T10:55:29.395Z,19.10
2023-05-08T10:58:10.268Z,19.10
2023-05-08T11:01:25.925Z,19.10
2023-05-08T11:03:56.708Z,19.10
2023-05-08T11:06:49.378Z,19.10
2023-05-08T11:09:24.679Z,19.10
2023-05-08T11:12:14.464Z,19.20
2023-05-08T11:14:45.098Z,19.20
2023-05-08T11:17:13.466Z,19.30
2023-05-08T11:19:57.635Z,19.40
2023-05-08T11:22:29.193Z,19.40
2023-05-08T11:25:02.973Z,19.50
2023-05-08T11:28:01.994Z,19.60
2023-05-08T11:30:39.148Z,19.70
2023-05-08T11:33:15.526Z,19.80
2023-05-08T11:35:55.344Z,19.80
2023-05-08T11:38:32.185Z,19.90
2023-05-08T11:41:02.856Z,20.10
2023-05-08T11:43:59.781Z,20.10
2023-05-08T11:46:40.582Z,20.30
2023-05-08T11:49:14.366Z,20.40
2023-05-08T11:51:45.371Z,20.50
2023-05-08T11:54:18.254Z,20.60
2023-05-08T11:56:48.123Z,20.70
2023-05-08T11:59:16.893Z,20.80
2023-05-08T12:01:59.884Z,20.90
2023-05-08T12:04:44.689Z,21.00
2023-05-08T12:07:12.874Z,21.10
2023-05-08T12:09:41.056Z,21.10
2023-05-08T12:12:09.458Z,21.10
2023-05-08T12:14:37.576Z,21.10
2023-05-08T12:17:07.297Z,21.00
2023-05-08T12:19:35.582Z,21.10
2023-05-08T12:22:03.705Z,21.10
2023-05-08T12:24:32.186Z,21.10
2023-05-08T12:27:00.289Z,21.10
2023-05-08T12:29:28.393Z,21.20
2023-05-08T12:31:56.764Z,21.30
2023-05-08T12:34:26.570Z,21.40
2023-05-08T12:37:03.929Z,21.50
2023-05-08T12:39:37.504Z,21.60
2023-05-08T12:42:05.952Z,21.70
2023-05-08T12:44:34.037Z,21.80
2023-05-08T12:47:02.317Z,21.90
2023-05-08T12:49:33.300Z,21.90
2023-05-08T12:52:08.922Z,22.00
2023-05-08T12:54:38.196Z,22.10
2023-05-08T12:57:12.812Z,22.10
2023-05-08T12:59:41.223Z,22.20
2023-05-08T13:02:16.958Z,22.20
2023-05-08T13:04:47.165Z,22.20
2023-05-08T13:07:15.683Z,22.30
2023-05-08T13:09:59.078Z,22.40
2023-05-08T13:12:27.056Z,22.40
2023-05-08T13:14:55.119Z,22.50
2023-05-08T13:17:23.327Z,22.60
2023-05-08T13:19:52.870Z,22.70
2023-05-08T13:22:23.147Z,22.70
2023-05-08T13:24:51.298Z,22.80
2023-05-08T13:27:19.609Z,22.80
2023-05-08T13:29:47.763Z,22.90
2023-05-08T13:32:15.891Z,22.90
2023-05-08T13:34:49.842Z,22.90
2023-05-08T13:37:21.076Z,22.90
2023-05-08T13:39:49.203Z,22.90
2023-05-08T13:42:17.287Z,22.90
2023-05-08T13:44:45.634Z,23.00
2023-05-08T13:47:13.818Z,23.00
2023-05-08T13:49:41.919Z,23.00
2023-05-08T13:52:09.991Z,23.00
2023-05-08T13:54:39.469Z,23.00
2023-05-08T13:57:08.126Z,23.00
2023-05-08T13:59:36.410Z,23.10
2023-05-08T14:02:04.538Z,23.10
2023-05-08T14:04:33.257Z,23.10
2023-05-08T14:07:01.570Z,23.10
2023-05-08T14:09:29.695Z,23.10
2023-05-08T14:11:59.209Z,23.10
2023-05-08T14:14:27.287Z,23.20
2023-05-08T14:16:55.359Z,23.20
2023-05-08T14:19:23.493Z,23.20
2023-05-08T14:21:52.106Z,23.30
2023-05-08T14:24:20.257Z,23.30
2023-05-08T14:26:48.351Z,23.30
2023-05-08T14:29:19.177Z,23.30
2023-05-08T14:31:47.543Z,23.30
2023-05-08T14:34:15.723Z,23.30
2023-05-08T14:36:43.826Z,23.30
2023-05-08T14:39:11.956Z,23.30
2023-05-08T14:41:40.061Z,23.30
2023-05-08T14:44:08.278Z,23.20
2023-05-08T14:46:37.790Z,23.20
2023-05-08T14:49:06.629Z,23.20
2023-05-08T14:51:34.683Z,23.20
2023-05-08T14:54:02.948Z,23.10
2023-05-08T14:56:37.369Z,23.10
2023-05-08T14:59:15.118Z,23.10
2023-05-08T15:01:44.686Z,23.10
2023-05-08T15:04:13.044Z,23.00
2023-05-08T15:06:41.500Z,23.00
2023-05-08T15:09:10.276Z,22.90
2023-05-08T15:11:38.642Z,22.90
2023-05-08T15:14:06.977Z,22.90
2023-05-08T15:16:35.149Z,22.80
2023-05-08T15:19:04.627Z,22.80
2023-05-08T15:21:32.702Z,22.80
2023-05-08T15:24:00.860Z,22.70
2023-05-08T15:26:28.944Z,22.70
2023-05-08T15:28:56.978Z,22.70
2023-05-08T15:31:25.170Z,22.60
2023-05-08T15:33:53.307Z,22.60
2023-05-08T15:36:22.822Z,22.60
2023-05-08T15:38:50.921Z,22.60
2023-05-08T15:41:18.970Z,22.60
2023-05-08T15:43:47.902Z,22.60
2023-05-08T15:46:16.265Z,22.60
2023-05-08T15:48:44.798Z,22.60
2023-05-08T15:51:12.968Z,22.60
2023-05-08T15:53:42.460Z,22.60
2023-05-08T15:56:10.528Z,22.60
2023-05-08T15:58:39.218Z,22.60
2023-05-08T16:01:07.439Z,22.60
2023-05-08T16:03:35.846Z,22.60
2023-05-08T16:06:04.136Z,22.70
2023-05-08T16:08:32.588Z,22.70
2023-05-08T16:11:02.428Z,22.70
2023-05-08T16:13:30.501Z,22.70
2023-05-08T16:16:04.637Z,22.80
2023-05-08T16:18:32.909Z,22.80
2023-05-08T16:21:01.082Z,22.90
2023-05-08T16:23:29.345Z,22.90
2023-05-08T16:25:57.397Z,22.90
2023-05-08T16:28:26.842Z,22.90
2023-05-08T16:30:54.978Z,22.90
2023-05-08T16:33:23.115Z,22.90
2023-05-08T16:35:51.301Z,23.00
2023-05-08T16:38:19.387Z,22.90
2023-05-08T16:40:47.447Z,22.90
2023-05-08T16:43:15.570Z,22.90
2023-05-08T16:45:45.106Z,22.90
2023-05-08T16:48:13.193Z,22.90
2023-05-08T16:50:41.318Z,22.90
2023-05-08T16:53:09.461Z,22.90
2023-05-08T16:55:37.574Z,22.90
2023-05-08T16:58:07.105Z,22.80
2023-05-08T17:00:35.385Z,22.80
2023-05-08T17:03:05.008Z,22.80
2023-05-08T17:05:33.458Z,22.80
2023-05-08T17:08:01.603Z,22.80
2023-05-08T17:10:29.972Z,22.80
2023-05-08T17:12:58.051Z,22.80
2023-05-08T17:15:26.139Z,22.80
2023-05-08T17:17:55.956Z,22.80
2023-05-08T17:20:25.525Z,22.90
2023-05-08T17:22:54.584Z,22.90
2023-05-08T17:25:23.385Z,22.90
2023-05-08T17:27:51.468Z,22.90
2023-05-08T17:30:19.605Z,22.80
2023-05-08T17:32:52.389Z,22.80
2023-05-08T17:35:21.440Z,22.80
2023-05-08T17:37:50.896Z,22.70
2023-05-08T17:40:18.954Z,22.70
2023-05-08T17:42:46.992Z,22.70
2023-05-08T17:45:16.384Z,22.70
2023-05-08T17:47:44.535Z,22.70
2023-05-08T17:50:13.082Z,22.60
2023-05-08T17:52:41.382Z,22.60
2023-05-08T17:55:11.849Z,22.50
2023-05-08T17:57:39.924Z,22.50
2023-05-08T18:00:09.309Z,22.50
2023-05-08T18:02:37.515Z,22.40
2023-05-08T18:05:06.114Z,22.40
2023-05-08T18:07:34.201Z,22.30
2023-05-08T18:10:02.387Z,22.20
2023-05-08T18:12:33.478Z,22.20
2023-05-08T18:15:03.538Z,22.10
2023-05-08T18:17:31.648Z,22.10
2023-05-08T18:19:59.920Z,22.00
2023-05-08T18:22:27.985Z,22.00
2023-05-08T18:24:57.127Z,22.00
2023-05-08T18:27:26.624Z,21.90
2023-05-08T18:29:56.279Z,21.90
2023-05-08T18:32:24.391Z,21.80
2023-05-08T18:34:52.595Z,21.80
2023-05-08T18:37:20.679Z,21.80
2023-05-08T18:39:48.800Z,21.70
2023-05-08T18:42:17.085Z,21.60
2023-05-08T18:44:45.215Z,21.60
2023-05-08T18:47:14.658Z,21.60
2023-05-08T18:49:43.938Z,21.50
2023-05-08T18:52:12.112Z,21.50
2023-05-08T18:54:40.516Z,21.50
2023-05-08T18:57:08.609Z,21.40
2023-05-08T18:59:36.861Z,21.30
2023-05-08T19:02:04.971Z,21.30
2023-05-08T19:04:34.453Z,21.20
2023-05-08T19:07:02.616Z,21.20
2023-05-08T19:09:30.739Z,21.20
2023-05-08T19:11:59.051Z,21.10
2023-05-08T19:14:27.138Z,21.10
2023-05-08T19:16:58.249Z,21.10
2023-05-08T19:19:27.592Z,21.10
2023-05-08T19:21:57.509Z,21.00
2023-05-08T19:24:29.797Z,21.00
2023-05-08T19:26:59.003Z,21.00
2023-05-08T19:29:27.341Z,20.90
2023-05-08T19:31:56.441Z,20.80
2023-05-08T19:34:24.797Z,20.80
2023-05-08T19:36:52.915Z,20.70
2023-05-08T19:39:22.408Z,20.70
2023-05-08T19:41:50.556Z,20.60
2023-05-08T19:44:18.650Z,20.60
2023-05-08T19:46:46.776Z,20.50
2023-05-08T19:49:17.274Z,20.50
2023-05-08T19:51:45.725Z,20.40
2023-05-08T19:54:14.195Z,20.40
2023-05-08T19:56:43.706Z,20.40
2023-05-08T19:59:11.992Z,20.30
2023-05-08T20:01:40.378Z,20.30
2023-05-08T20:04:08.671Z,20.20
2023-05-08T20:06:38.348Z,20.20
2023-05-08T20:09:06.881Z,20.10
2023-05-08T20:11:35.030Z,20.10
2023-05-08T20:14:04.576Z,20.00
2023-05-08T20:16:32.745Z,20.00
2023-05-08T20:19:01.685Z,20.00
2023-05-08T20:21:32.357Z,19.90
2023-05-08T20:24:00.656Z,19.90
2023-05-08T20:26:29.398Z,19.90
2023-05-08T20:28:57.688Z,19.80
2023-05-08T20:31:27.881Z,19.80
2023-05-08T20:33:56.046Z,19.80
2023-05-08T20:36:24.166Z,19.70
2023-05-08T20:38:52.333Z,19.70
2023-05-08T20:41:20.524Z,19.70
2023-05-08T20:43:48.592Z,19.60
2023-05-08T20:46:16.935Z,19.60
2023-05-08T20:48:46.503Z,19.60
2023-05-08T20:51:15.934Z,19.60
2023-05-08T20:53:44.175Z,19.50
2023-05-08T20:56:15.721Z,19.50
2023-05-08T20:58:46.097Z,19.50
2023-05-08T21:01:14.215Z,19.50
2023-05-08T21:03:42.488Z,19.50
2023-05-08T21:06:12.287Z,19.40
2023-05-08T21:08:40.418Z,19.40
2023-05-08T21:11:08.534Z,19.40
2023-05-08T21:13:36.626Z,19.40
2023-05-08T21:16:05.679Z,19.30
2023-05-08T21:18:33.765Z,19.30
2023-05-08T21:21:01.870Z,19.30
2023-05-08T21:23:31.551Z,19.30
2023-05-08T21:25:59.680Z,19.20
2023-05-08T21:28:27.731Z,19.20
2023-05-08T21:30:55.821Z,19.20
2023-05-08T21:33:23.925Z,19.10
2023-05-08T21:35:52.087Z,19.00
2023-05-08T21:38:20.143Z,19.00
2023-05-08T21:40:49.681Z,18.90
2023-05-08T21:43:17.753Z,18.90
2023-05-08T21:45:46.093Z,18.90
2023-05-08T21:48:14.171Z,18.80
2023-05-08T21:50:42.243Z,18.80
2023-05-08T21:53:10.346Z,18.70
2023-05-08T21:55:38.422Z,18.70
2023-05-08T21:58:07.954Z,18.70
2023-05-08T22:00:36.022Z,18.70
2023-05-08T22:03:04.165Z,18.70
2023-05-08T22:05:32.369Z,18.70
2023-05-08T22:08:00.442Z,18.70
2023-05-08T22:10:28.646Z,18.70
2023-05-08T22:12:56.817Z,18.70
2023-05-08T22:15:30.313Z,18.70
2023-05-08T22:17:59.329Z,18.70
2023-05-08T22:20:27.663Z,18.70
2023-05-08T22:22:55.856Z,18.70
2023-05-08T22:25:25.228Z,18.70
2023-05-08T22:27:53.418Z,18.70
2023-05-08T22:30:21.989Z,18.70
2023-05-08T22:32:55.996Z,18.70
2023-05-08T22:35:25.301Z,18.70
2023-05-08T22:37:53.810Z,18.70
2023-05-08T22:40:22.241Z,18.70
2023-05-08T22:42:53.396Z,18.60
2023-05-08T22:45:21.739Z,18.60
2023-05-08T22:47:51.608Z,18.60
2023-05-08T22:50:19.893Z,18.60
2023-05-08T22:52:48.002Z,18.60
2023-05-08T22:55:16.910Z,18.60
2023-05-08T22:57:45.286Z,18.60
2023-05-08T23:00:15.296Z,18.60
2023-05-08T23:02:43.408Z,18.60
2023-05-08T23:05:13.255Z,18.60
2023-05-08T23:07:41.999Z,18.50
2023-05-08T23:10:10.804Z,18.50
2023-05-08T23:12:38.882Z,18.50
2023-05-08T23:15:08.170Z,18.50
2023-05-08T23:17:36.352Z,18.50
2023-05-08T23:20:05.815Z,18.40
2023-05-08T23:22:35.314Z,18.40
2023-05-08T23:25:03.535Z,18.40
2023-05-08T23:27:31.596Z,18.40
2023-05-08T23:29:59.649Z,18.40
2023-05-08T23:32:27.763Z,18.40
2023-05-08T23:34:55.885Z,18.30
2023-05-08T23:37:23.998Z,18.30
2023-05-08T23:39:53.511Z,18.30
2023-05-08T23:42:21.690Z,18.30
2023-05-08T23:44:49.773Z,18.20
2023-05-08T23:47:19.366Z,18.20
2023-05-08T23:49:47.476Z,18.20
2023-05-08T23:52:15.676Z,18.10
2023-05-08T23:54:43.868Z,18.10
2023-05-08T23:57:13.384Z,18.10
2023-05-08T23:59:41.638Z,18.00
